createdAt,value
2019-05-02T00:01:33.311Z,97235.52
2019-05-02T00:04:12.474Z,97236.67
2019-05-02T00:06:46.092Z,97226.41
2019-05-02T00:09:20.563Z,97227.43
2019-05-02T00:11:58.945Z,97228.32
2019-05-02T00:14:31.293Z,97222.50
2019-05-02T00:17:05.682Z,97222.50
2019-05-02T00:19:39.945Z,97220.84
2019-05-02T00:22:17.307Z,97220.48
2019-05-02T00:24:50.948Z,97219.84
2019-05-02T00:27:25.134Z,97219.84
2019-05-02T00:30:00.401Z,97216.17
2019-05-02T00:32:34.911Z,97216.17
2019-05-02T00:35:08.942Z,97209.98
2019-05-02T00:37:41.784Z,97209.98
2019-05-02T00:40:20.137Z,97209.48
2019-05-02T00:42:53.371Z,97211.77
2019-05-02T00:45:28.307Z,97202.03
2019-05-02T00:48:24.414Z,97202.03
2019-05-02T00:50:58.950Z,97204.05
2019-05-02T00:53:32.952Z,97201.00
2019-05-02T00:56:09.100Z,97197.45
2019-05-02T00:58:43.224Z,97195.42
2019-05-02T01:01:39.276Z,97186.94
2019-05-02T01:04:23.319Z,97186.94
2019-05-02T01:06:58.848Z,97184.92
2019-05-02T01:09:33.217Z,97181.52
2019-05-02T01:12:08.294Z,97171.67
2019-05-02T01:14:43.274Z,97171.67
2019-05-02T01:17:17.652Z,97171.66
2019-05-02T01:19:52.753Z,97169.88
2019-05-02T01:22:25.863Z,97166.61
2019-05-02T01:24:59.935Z,97171.05
2019-05-02T01:27:42.611Z,97169.02
2019-05-02T01:30:43.755Z,97169.38
2019-05-02T01:33:36.885Z,97165.09
2019-05-02T01:36:23.467Z,97157.64
2019-05-02T01:38:57.776Z,97157.64
2019-05-02T01:41:31.079Z,97161.94
2019-05-02T01:44:05.270Z,97156.52
2019-05-02T01:46:39.675Z,97156.37
2019-05-02T01:49:16.907Z,97152.44
2019-05-02T01:51:49.917Z,97143.07
2019-05-02T01:54:24.323Z,97149.64
2019-05-02T01:56:58.688Z,97149.64
2019-05-02T01:59:33.923Z,97147.00
2019-05-02T02:02:08.916Z,97143.47
2019-05-02T02:04:41.694Z,97144.22
2019-05-02T02:10:50.730Z,97137.41
2019-05-02T02:13:23.882Z,97138.64
2019-05-02T02:16:00.240Z,97135.36
2019-05-02T02:18:37.360Z,97128.28
2019-05-02T02:21:20.057Z,97127.64
2019-05-02T02:24:11.267Z,97126.13
2019-05-02T02:26:48.307Z,97130.02
2019-05-02T02:29:21.734Z,97125.80
2019-05-02T02:31:55.952Z,97123.14
2019-05-02T02:34:32.471Z,97132.34
2019-05-02T02:37:12.504Z,97124.08
2019-05-02T02:39:40.846Z,97118.52
2019-05-02T02:42:15.076Z,97116.75
2019-05-02T02:44:59.279Z,97117.69
2019-05-02T02:47:33.681Z,97117.69
2019-05-02T02:50:08.278Z,97117.70
2019-05-02T02:52:44.571Z,97117.70
2019-05-02T02:55:21.908Z,97118.95
2019-05-02T02:57:58.332Z,97123.52
2019-05-02T03:00:30.875Z,97113.67
2019-05-02T03:03:03.684Z,97110.77
2019-05-02T03:05:37.873Z,97109.05
2019-05-02T03:08:10.682Z,97114.42
2019-05-02T03:10:45.460Z,97108.36
2019-05-02T03:13:52.570Z,97112.13
2019-05-02T03:16:23.942Z,97109.81
2019-05-02T03:18:58.269Z,97111.82
2019-05-02T03:21:32.666Z,97111.55
2019-05-02T03:24:07.277Z,97107.88
2019-05-02T03:26:41.638Z,97109.84
2019-05-02T03:29:16.690Z,97113.69
2019-05-02T03:32:12.304Z,97118.54
2019-05-02T03:34:45.082Z,97114.45
2019-05-02T03:37:10.430Z,97114.76
2019-05-02T03:39:40.337Z,97114.76
2019-05-02T03:42:14.695Z,97107.31
2019-05-02T03:44:55.786Z,97113.58
2019-05-02T03:47:23.861Z,97107.75
2019-05-02T03:49:58.268Z,97108.13
2019-05-02T03:52:46.216Z,97102.31
2019-05-02T03:55:23.921Z,97112.38
2019-05-02T03:57:52.784Z,97110.60
2019-05-02T04:00:26.894Z,97105.82
2019-05-02T04:03:02.121Z,97111.33
2019-05-02T04:05:40.474Z,97108.70
2019-05-02T04:08:19.809Z,97116.09
2019-05-02T04:11:25.297Z,97116.09
2019-05-02T04:13:59.949Z,97114.04
2019-05-02T04:16:34.277Z,97114.45
2019-05-02T04:19:08.676Z,97121.63
2019-05-02T04:21:43.069Z,97114.45
2019-05-02T04:24:18.293Z,97118.20
2019-05-02T04:28:05.815Z,97120.10
2019-05-02T04:30:45.213Z,97127.37
2019-05-02T04:33:16.725Z,97121.20
2019-05-02T04:35:51.278Z,97121.20
2019-05-02T04:38:41.735Z,97115.98
2019-05-02T04:41:02.269Z,97117.05
2019-05-02T04:43:40.718Z,97122.81
2019-05-02T04:46:21.964Z,97125.97
2019-05-02T04:48:52.693Z,97124.92
2019-05-02T04:51:27.652Z,97124.92
2019-05-02T04:54:01.328Z,97126.66
2019-05-02T04:56:39.709Z,97123.89
2019-05-02T04:59:17.586Z,97126.37
2019-05-02T05:01:57.260Z,97130.91
2019-05-02T05:04:27.611Z,97130.91
2019-05-02T05:07:02.273Z,97121.55
2019-05-02T05:09:40.103Z,97123.43
2019-05-02T05:12:13.295Z,97124.68
2019-05-02T05:14:47.912Z,97127.86
2019-05-02T05:17:25.138Z,97127.92
2019-05-02T05:20:00.218Z,97129.45
2019-05-02T05:22:36.460Z,97134.50
2019-05-02T05:25:17.788Z,97124.53
2019-05-02T05:27:57.550Z,97137.83
2019-05-02T05:30:29.080Z,97140.59
2019-05-02T05:33:03.872Z,97137.38
2019-05-02T05:35:38.600Z,97137.38
2019-05-02T05:38:13.267Z,97130.16
2019-05-02T05:41:29.352Z,97124.73
2019-05-02T05:44:03.940Z,97134.64
2019-05-02T05:46:41.126Z,97131.61
2019-05-02T05:49:18.353Z,97129.22
2019-05-02T05:51:54.405Z,97128.27
2019-05-02T05:54:28.308Z,97128.27
2019-05-02T05:57:03.124Z,97125.25
2019-05-02T05:59:38.083Z,97129.89
2019-05-02T06:02:14.713Z,97130.87
2019-05-02T06:04:50.277Z,97129.70
2019-05-02T06:07:24.927Z,97121.63
2019-05-02T06:10:02.408Z,97121.63
2019-05-02T06:12:35.722Z,97129.84
2019-05-02T06:15:10.706Z,97124.41
2019-05-02T06:17:44.927Z,97125.94
2019-05-02T06:20:19.263Z,97117.96
2019-05-02T06:22:55.050Z,97122.27
2019-05-02T06:25:34.076Z,97122.27
2019-05-02T06:28:06.833Z,97122.75
2019-05-02T06:30:42.299Z,97120.09
2019-05-02T06:33:16.921Z,97120.09
2019-05-02T06:35:51.857Z,97117.28
2019-05-02T06:38:40.692Z,97110.44
2019-05-02T06:41:16.102Z,97110.44
2019-05-02T06:43:51.404Z,97109.13
2019-05-02T06:46:27.850Z,97105.95
2019-05-02T06:49:01.860Z,97103.34
2019-05-02T06:51:36.376Z,97109.52
2019-05-02T06:54:11.277Z,97104.99
2019-05-02T06:56:47.963Z,97100.38
2019-05-02T06:59:22.275Z,97099.92
2019-05-02T07:01:57.495Z,97103.44
2019-05-02T07:04:33.284Z,97093.39
2019-05-02T07:07:08.249Z,97087.98
2019-05-02T07:09:43.185Z,97097.66
2019-05-02T07:12:17.948Z,97093.08
2019-05-02T07:14:56.126Z,97090.50
2019-05-02T07:17:41.545Z,97080.97
2019-05-02T07:20:16.313Z,97080.97
2019-05-02T07:22:51.069Z,97085.42
2019-05-02T07:25:25.319Z,97080.60
2019-05-02T07:27:59.953Z,97082.73
2019-05-02T07:30:35.088Z,97084.30
2019-05-02T07:33:10.975Z,97086.59
2019-05-02T07:35:45.661Z,97082.14
2019-05-02T07:38:25.580Z,97082.14
2019-05-02T07:40:56.664Z,97082.86
2019-05-02T07:43:31.322Z,97082.86
2019-05-02T07:46:05.778Z,97084.67
2019-05-02T07:48:38.665Z,97084.67
2019-05-02T07:51:17.316Z,97082.03
2019-05-02T07:53:49.826Z,97081.31
2019-05-02T07:56:24.041Z,97078.65
2019-05-02T07:58:58.354Z,97078.65
2019-05-02T08:01:34.266Z,97081.23
2019-05-02T08:04:11.077Z,97077.14
2019-05-02T08:06:46.471Z,97072.22
2019-05-02T08:09:21.299Z,97066.77
2019-05-02T08:11:56.131Z,97077.59
2019-05-02T08:14:34.629Z,97064.84
2019-05-02T08:17:16.324Z,97073.77
2019-05-02T08:19:43.681Z,97061.96
2019-05-02T08:22:18.092Z,97064.39
2019-05-02T08:24:52.659Z,97065.59
2019-05-02T08:27:41.638Z,97065.59
2019-05-02T08:30:26.068Z,97069.20
2019-05-02T08:33:00.311Z,97067.52
2019-05-02T08:35:37.711Z,97067.52
2019-05-02T08:38:12.544Z,97056.04
2019-05-02T08:40:48.232Z,97056.04
2019-05-02T08:43:24.326Z,97070.17
2019-05-02T08:45:59.920Z,97070.17
2019-05-02T08:48:36.405Z,97071.28
2019-05-02T08:51:10.593Z,97061.04
2019-05-02T08:53:44.944Z,97061.04
2019-05-02T08:56:21.446Z,97060.63
2019-05-02T08:58:55.296Z,97057.62
2019-05-02T09:01:35.171Z,97060.08
2019-05-02T09:04:05.063Z,97049.70
2019-05-02T09:06:39.272Z,97052.66
2019-05-02T09:09:13.707Z,97052.29
2019-05-02T09:12:01.006Z,97052.29
2019-05-02T09:14:22.676Z,97045.72
2019-05-02T09:17:00.154Z,97043.37
2019-05-02T09:19:34.853Z,97038.64
2019-05-02T09:22:13.245Z,97036.91
2019-05-02T09:24:45.287Z,97038.36
2019-05-02T09:27:19.672Z,97034.22
2019-05-02T09:29:54.088Z,97030.78
2019-05-02T09:32:28.774Z,97039.80
2019-05-02T09:35:06.159Z,97039.80
2019-05-02T09:39:36.281Z,97023.10
2019-05-02T09:42:12.460Z,97023.10
2019-05-02T09:44:48.065Z,97024.52
2019-05-02T09:47:27.279Z,97026.42
2019-05-02T09:50:20.785Z,97026.42
2019-05-02T09:52:52.982Z,97020.08
2019-05-02T09:55:27.283Z,97015.88
2019-05-02T09:58:02.656Z,97020.10
2019-05-02T10:00:45.893Z,97014.46
2019-05-02T10:03:20.280Z,97009.80
2019-05-02T10:05:56.704Z,96994.38
2019-05-02T10:08:31.938Z,96994.38
2019-05-02T10:11:06.706Z,96999.91
2019-05-02T10:13:42.461Z,96997.50
2019-05-02T10:16:17.905Z,96995.34
2019-05-02T10:18:54.655Z,96993.19
2019-05-02T10:21:29.286Z,96993.19
2019-05-02T10:24:03.948Z,97001.25
2019-05-02T10:26:38.285Z,96991.58
2019-05-02T10:29:12.837Z,96981.72
2019-05-02T10:31:47.284Z,96986.41
2019-05-02T10:34:22.634Z,96988.00
2019-05-02T10:36:59.284Z,96979.94
2019-05-02T10:39:37.688Z,96968.00
2019-05-02T10:42:10.115Z,96968.00
2019-05-02T10:44:44.951Z,96973.22
2019-05-02T10:47:19.644Z,96973.22
2019-05-02T10:49:58.314Z,96974.92
2019-05-02T10:52:34.241Z,96962.08
2019-05-02T10:55:09.301Z,96955.44
2019-05-02T10:57:43.880Z,96962.66
2019-05-02T11:00:23.681Z,96959.64
2019-05-02T11:03:16.602Z,96955.78
2019-05-02T11:05:57.906Z,96948.66
2019-05-02T11:08:32.135Z,96949.09
2019-05-02T11:11:06.634Z,96949.09
2019-05-02T11:14:00.898Z,96952.08
2019-05-02T11:16:43.703Z,96939.09
2019-05-02T11:19:42.612Z,96931.16
2019-05-02T11:22:17.267Z,96941.42
2019-05-02T11:24:52.359Z,96941.47
2019-05-02T11:27:27.271Z,96940.59
2019-05-02T11:30:02.689Z,96934.74
2019-05-02T11:32:37.981Z,96936.69
2019-05-02T11:35:12.654Z,96934.59
2019-05-02T11:37:47.108Z,96921.70
2019-05-02T11:40:22.755Z,96910.49
2019-05-02T11:43:01.704Z,96924.70
2019-05-02T11:45:33.343Z,96921.48
2019-05-02T11:48:09.215Z,96916.75
2019-05-02T11:50:44.329Z,96916.75
2019-05-02T11:53:28.898Z,96911.05
2019-05-02T11:55:58.329Z,96911.05
2019-05-02T11:58:32.550Z,96916.89
2019-05-02T12:01:56.527Z,96911.35
2019-05-02T12:04:18.088Z,96912.92
2019-05-02T12:07:01.167Z,96901.67
2019-05-02T12:09:29.268Z,96901.67
2019-05-02T12:12:03.869Z,96909.31
2019-05-02T12:14:38.274Z,96908.56
2019-05-02T12:17:13.064Z,96903.44
2019-05-02T12:19:47.785Z,96908.91
2019-05-02T12:22:23.989Z,96904.42
2019-05-02T12:24:55.856Z,96902.95
2019-05-02T12:27:28.664Z,96899.13
2019-05-02T12:30:03.425Z,96902.81
2019-05-02T12:32:38.267Z,96900.11
2019-05-02T12:35:12.942Z,96906.88
2019-05-02T12:37:52.401Z,96894.70
2019-05-02T12:40:23.346Z,96901.51
2019-05-02T12:42:58.129Z,96899.63
2019-05-02T12:45:33.715Z,96900.50
2019-05-02T12:48:07.022Z,96900.50
2019-05-02T12:50:41.815Z,96889.05
2019-05-02T12:53:16.578Z,96896.73
2019-05-02T12:55:52.696Z,96891.52
2019-05-02T12:58:26.276Z,96893.23
2019-05-02T13:01:02.686Z,96896.03
2019-05-02T13:03:45.301Z,96896.03
2019-05-02T13:06:21.819Z,96900.67
2019-05-02T13:08:56.276Z,96896.50
2019-05-02T13:11:42.174Z,96885.45
2019-05-02T13:14:19.050Z,96886.24
2019-05-02T13:16:53.473Z,96881.70
2019-05-02T13:19:39.938Z,96879.79
2019-05-02T13:22:21.868Z,96879.79
2019-05-02T13:25:02.033Z,96877.80
2019-05-02T13:27:43.335Z,96881.58
2019-05-02T13:30:21.925Z,96876.98
2019-05-02T13:33:00.113Z,96867.26
2019-05-02T13:35:53.558Z,96867.26
2019-05-02T13:38:28.398Z,96876.39
2019-05-02T13:41:04.276Z,96866.61
2019-05-02T13:43:45.947Z,96861.48
2019-05-02T13:46:22.717Z,96865.05
2019-05-02T13:48:56.280Z,96866.39
2019-05-02T13:51:32.125Z,96863.09
2019-05-02T13:54:07.313Z,96863.09
2019-05-02T13:56:52.362Z,96859.13
2019-05-02T13:59:26.280Z,96853.72
2019-05-02T14:02:03.635Z,96848.63
2019-05-02T14:04:39.271Z,96853.04
2019-05-02T14:07:17.452Z,96845.30
2019-05-02T14:09:58.502Z,96858.45
2019-05-02T14:12:50.262Z,96869.66
2019-05-02T14:15:27.450Z,96849.67
2019-05-02T14:18:03.646Z,96855.20
2019-05-02T14:20:38.337Z,96846.82
2019-05-02T14:23:13.267Z,96843.74
2019-05-02T14:25:47.939Z,96855.52
2019-05-02T14:28:26.832Z,96840.79
2019-05-02T14:30:59.871Z,96855.08
2019-05-02T14:33:37.699Z,96855.08
2019-05-02T14:36:11.688Z,96839.01
2019-05-02T14:38:46.339Z,96851.15
2019-05-02T14:41:30.072Z,96846.13
2019-05-02T14:44:04.280Z,96843.94
2019-05-02T14:46:39.631Z,96857.66
2019-05-02T14:49:16.741Z,96853.03
2019-05-02T14:51:48.692Z,96853.73
2019-05-02T14:54:23.280Z,96844.38
2019-05-02T14:57:11.888Z,96846.27
2019-05-02T14:59:50.296Z,96849.53
2019-05-02T15:02:47.147Z,96849.53
2019-05-02T15:05:19.460Z,96847.50
2019-05-02T15:07:56.903Z,96847.50
2019-05-02T15:10:56.077Z,96840.30
2019-05-02T15:13:32.289Z,96846.46
2019-05-02T15:16:03.839Z,96830.34
2019-05-02T15:18:37.350Z,96832.92
2019-05-02T15:21:22.640Z,96836.25
2019-05-02T15:23:58.004Z,96839.44
2019-05-02T15:26:34.984Z,96830.05
2019-05-02T15:29:12.337Z,96830.05
2019-05-02T15:31:52.571Z,96835.38
2019-05-02T15:34:47.861Z,96829.16
2019-05-02T15:37:22.198Z,96814.97
2019-05-02T15:42:33.094Z,96825.67
2019-05-02T15:45:08.267Z,96823.20
2019-05-02T15:47:45.312Z,96823.20
2019-05-02T15:50:21.942Z,96823.00
2019-05-02T15:53:03.220Z,96822.05
2019-05-02T15:55:39.694Z,96831.37
2019-05-02T15:58:25.978Z,96829.23
2019-05-02T16:01:16.604Z,96834.47
2019-05-02T16:03:52.565Z,96828.19
2019-05-02T16:06:31.732Z,96827.80
2019-05-02T16:09:03.111Z,96824.65
2019-05-02T16:11:39.250Z,96824.65
2019-05-02T16:14:13.699Z,96830.84
2019-05-02T16:16:46.643Z,96824.92
2019-05-02T16:19:28.574Z,96822.02
2019-05-02T16:22:08.160Z,96819.61
2019-05-02T16:24:43.957Z,96819.28
2019-05-02T16:27:21.937Z,96819.28
2019-05-02T16:29:58.258Z,96807.80
2019-05-02T16:32:42.050Z,96804.68
2019-05-02T16:35:19.607Z,96812.08
2019-05-02T16:37:55.981Z,96811.91
2019-05-02T16:40:32.799Z,96810.13
2019-05-02T16:43:07.932Z,96810.13
2019-05-02T16:45:43.967Z,96814.65
2019-05-02T16:48:19.259Z,96809.57
2019-05-02T16:50:53.732Z,96804.98
2019-05-02T16:53:30.896Z,96800.34
2019-05-02T16:56:07.017Z,96802.69
2019-05-02T16:58:43.316Z,96806.38
2019-05-02T17:01:26.590Z,96806.38
2019-05-02T17:03:53.191Z,96809.78
2019-05-02T17:06:28.940Z,96803.72
2019-05-02T17:09:22.314Z,96806.00
2019-05-02T17:11:57.264Z,96806.00
2019-05-02T17:14:31.813Z,96808.03
2019-05-02T17:17:06.244Z,96808.03
2019-05-02T17:19:40.711Z,96807.21
2019-05-02T17:22:16.733Z,96808.39
2019-05-02T17:24:52.542Z,96814.13
2019-05-02T17:27:26.936Z,96810.81
2019-05-02T17:30:03.606Z,96810.81
2019-05-02T17:32:41.413Z,96810.55
2019-05-02T17:35:16.321Z,96810.35
2019-05-02T17:37:52.383Z,96810.18
2019-05-02T17:40:27.132Z,96810.18
2019-05-02T17:43:06.592Z,96815.56
2019-05-02T17:45:38.731Z,96815.56
2019-05-02T17:48:16.641Z,96813.91
2019-05-02T17:51:12.257Z,96813.91
2019-05-02T17:53:49.842Z,96809.53
2019-05-02T17:56:25.064Z,96809.53
2019-05-02T17:58:59.689Z,96811.70
2019-05-02T18:01:37.573Z,96814.61
2019-05-02T18:04:15.288Z,96817.29
2019-05-02T18:06:52.360Z,96816.61
2019-05-02T18:09:26.380Z,96819.22
2019-05-02T18:12:01.562Z,96815.98
2019-05-02T18:14:36.127Z,96813.64
2019-05-02T18:17:12.591Z,96817.49
2019-05-02T18:19:46.882Z,96817.49
2019-05-02T18:22:24.151Z,96814.61
2019-05-02T18:24:55.671Z,96817.30
2019-05-02T18:27:29.869Z,96815.03
2019-05-02T18:30:02.842Z,96808.44
2019-05-02T18:32:38.731Z,96811.05
2019-05-02T18:35:13.278Z,96823.42
2019-05-02T18:37:47.916Z,96814.28
2019-05-02T18:40:27.686Z,96813.30
2019-05-02T18:43:02.205Z,96818.25
2019-05-02T18:45:32.952Z,96813.19
2019-05-02T18:48:06.956Z,96812.99
2019-05-02T18:50:47.636Z,96815.67
2019-05-02T18:53:24.369Z,96819.64
2019-05-02T18:56:01.447Z,96819.64
2019-05-02T18:58:36.320Z,96824.70
2019-05-02T19:01:14.038Z,96821.02
2019-05-02T19:03:47.073Z,96822.86
2019-05-02T19:06:22.117Z,96827.14
2019-05-02T19:09:02.190Z,96831.72
2019-05-02T19:11:38.937Z,96826.53
2019-05-02T19:14:16.676Z,96826.53
2019-05-02T19:16:49.284Z,96827.77
2019-05-02T19:19:27.442Z,96829.05
2019-05-02T19:21:59.754Z,96832.71
2019-05-02T19:24:36.509Z,96831.50
2019-05-02T19:27:10.304Z,96834.58
2019-05-02T19:29:48.084Z,96830.31
2019-05-02T19:32:25.507Z,96834.69
2019-05-02T19:35:03.197Z,96826.75
2019-05-02T19:37:36.197Z,96832.57
2019-05-02T19:40:14.899Z,96833.97
2019-05-02T19:42:49.361Z,96830.63
2019-05-02T19:45:23.884Z,96830.63
2019-05-02T19:47:58.255Z,96832.34
2019-05-02T19:50:43.954Z,96832.02
2019-05-02T19:53:19.414Z,96821.31
2019-05-02T19:55:57.180Z,96821.31
2019-05-02T19:58:31.995Z,96814.82
2019-05-02T20:01:07.614Z,96810.41
2019-05-02T20:03:42.422Z,96810.41
2019-05-02T20:06:16.958Z,96806.77
2019-05-02T20:08:52.543Z,96810.12
2019-05-02T20:11:28.165Z,96806.25
2019-05-02T20:14:09.080Z,96805.09
2019-05-02T20:16:48.941Z,96809.89
2019-05-02T20:19:26.965Z,96800.44
2019-05-02T20:22:17.667Z,96800.44
2019-05-02T20:25:00.148Z,96808.27
2019-05-02T20:27:33.322Z,96812.63
2019-05-02T20:30:08.947Z,96810.81
2019-05-02T20:32:42.757Z,96810.81
2019-05-02T20:35:16.897Z,96812.43
2019-05-02T20:37:49.879Z,96811.27
2019-05-02T20:40:32.083Z,96815.39
2019-05-02T20:43:07.350Z,96811.25
2019-05-02T20:45:42.132Z,96811.25
2019-05-02T20:48:16.732Z,96806.14
2019-05-02T20:50:51.979Z,96806.50
2019-05-02T20:53:30.995Z,96798.82
2019-05-02T20:56:02.789Z,96798.82
2019-05-02T20:58:35.744Z,96799.64
2019-05-02T21:01:12.188Z,96798.59
2019-05-02T21:03:46.378Z,96795.88
2019-05-02T21:06:44.083Z,96797.70
2019-05-02T21:09:32.322Z,96801.63
2019-05-02T21:12:08.292Z,96797.75
2019-05-02T21:14:42.789Z,96800.81
2019-05-02T21:17:17.285Z,96795.84
2019-05-02T21:19:51.723Z,96795.84
2019-05-02T21:22:30.271Z,96806.75
2019-05-02T21:25:04.719Z,96803.31
2019-05-02T21:27:38.957Z,96801.53
2019-05-02T21:30:12.440Z,96801.53
2019-05-02T21:32:46.739Z,96805.91
2019-05-02T21:35:19.760Z,96813.84
2019-05-02T21:37:53.958Z,96809.60
2019-05-02T21:40:28.293Z,96805.86
2019-05-02T21:43:02.840Z,96816.14
2019-05-02T21:45:37.286Z,96811.09
2019-05-02T21:48:11.735Z,96802.02
2019-05-02T21:50:51.295Z,96801.86
2019-05-02T21:53:55.084Z,96803.76
2019-05-02T21:56:24.393Z,96799.75
2019-05-02T21:59:09.292Z,96799.75
2019-05-02T22:01:53.297Z,96798.75
2019-05-02T22:04:27.953Z,96800.65
2019-05-02T22:07:00.880Z,96793.95
2019-05-02T22:09:35.295Z,96793.95
2019-05-02T22:12:11.821Z,96792.16
2019-05-02T22:14:45.953Z,96781.92
2019-05-02T22:17:21.571Z,96790.28
2019-05-02T22:19:55.962Z,96785.98
2019-05-02T22:22:32.121Z,96786.35
2019-05-02T22:25:07.375Z,96786.35
2019-05-02T22:27:41.892Z,96797.80
2019-05-02T22:30:16.609Z,96797.80
2019-05-02T22:32:51.709Z,96801.86
2019-05-02T22:35:25.803Z,96795.48
2019-05-02T22:38:06.617Z,96795.48
2019-05-02T22:40:41.820Z,96789.78
2019-05-02T22:43:14.877Z,96796.56
2019-05-02T22:45:48.791Z,96805.42
2019-05-02T22:48:23.634Z,96805.09
2019-05-02T22:50:57.966Z,96805.09
2019-05-02T22:53:32.675Z,96810.53
2019-05-02T22:56:07.114Z,96810.53
2019-05-02T22:58:42.749Z,96807.67
2019-05-02T23:01:15.822Z,96807.67
2019-05-02T23:03:50.198Z,96821.97
2019-05-02T23:06:24.716Z,96829.05
2019-05-02T23:08:57.705Z,96828.92
2019-05-02T23:11:32.969Z,96831.37
2019-05-02T23:14:07.750Z,96826.27
2019-05-02T23:16:42.888Z,96826.27
2019-05-02T23:19:15.861Z,96826.14
2019-05-02T23:21:49.967Z,96828.55
2019-05-02T23:24:45.780Z,96828.55
2019-05-02T23:27:44.459Z,96830.69
2019-05-02T23:30:22.637Z,96827.11
2019-05-02T23:32:57.286Z,96831.16
2019-05-02T23:35:34.353Z,96832.55
2019-05-02T23:38:09.288Z,96835.77
2019-05-02T23:40:43.968Z,96841.33
2019-05-02T23:43:18.785Z,96835.01
2019-05-02T23:45:53.341Z,96836.94
2019-05-02T23:48:28.133Z,96838.84
2019-05-02T23:51:02.901Z,96844.84
2019-05-02T23:53:37.826Z,96838.42
2019-05-02T23:56:13.149Z,96838.42
2019-05-02T23:58:48.108Z,96841.75
